createdAt,value
2022-10-20T00:01:12.929Z,9.20
2022-10-20T00:03:39.989Z,9.20
2022-10-20T00:06:13.054Z,9.20
2022-10-20T00:08:42.475Z,9.20
2022-10-20T00:11:11.632Z,9.10
2022-10-20T00:13:40.100Z,9.10
2022-10-20T00:16:08.203Z,9.10
2022-10-20T00:18:35.972Z,9.10
2022-10-20T00:21:14.689Z,9.10
2022-10-20T00:23:41.697Z,9.10
2022-10-20T00:26:19.053Z,9.00
2022-10-20T00:28:46.360Z,9.00
2022-10-20T00:31:14.250Z,9.00
2022-10-20T00:33:41.380Z,9.00
2022-10-20T00:36:13.349Z,8.90
2022-10-20T00:38:40.442Z,8.90
2022-10-20T00:41:08.132Z,8.90
2022-10-20T00:43:57.223Z,8.90
2022-10-20T00:46:40.057Z,8.90
2022-10-20T00:49:15.726Z,8.90
2022-10-20T00:51:44.064Z,8.90
2022-10-20T00:54:18.030Z,8.90
2022-10-20T00:56:48.491Z,8.90
2022-10-20T00:59:21.548Z,8.90
2022-10-20T01:01:49.685Z,8.90
2022-10-20T01:04:17.764Z,8.90
2022-10-20T01:06:44.651Z,8.90
2022-10-20T01:09:12.786Z,8.90
2022-10-20T01:12:15.425Z,8.80
2022-10-20T01:15:28.735Z,8.80
2022-10-20T01:18:26.318Z,8.80
2022-10-20T01:21:39.661Z,8.70
2022-10-20T01:24:59.029Z,8.70
2022-10-20T01:27:33.014Z,8.70
2022-10-20T01:30:11.382Z,8.60
2022-10-20T01:32:54.708Z,8.60
2022-10-20T01:35:43.449Z,8.60
2022-10-20T01:38:22.707Z,8.60
2022-10-20T01:41:11.728Z,8.50
2022-10-20T01:43:42.642Z,8.50
2022-10-20T01:46:12.321Z,8.60
2022-10-20T01:48:40.767Z,8.60
2022-10-20T01:51:10.446Z,8.60
2022-10-20T01:53:38.070Z,8.60
2022-10-20T01:56:06.971Z,8.60
2022-10-20T01:59:25.684Z,8.60
2022-10-20T02:02:44.243Z,8.60
2022-10-20T02:05:23.708Z,8.60
2022-10-20T02:07:59.139Z,8.60
2022-10-20T02:10:36.847Z,8.60
2022-10-20T02:13:07.221Z,8.60
2022-10-20T02:15:43.597Z,8.50
2022-10-20T02:18:17.201Z,8.50
2022-10-20T02:20:49.493Z,8.60
2022-10-20T02:23:18.436Z,8.60
2022-10-20T02:25:51.082Z,8.60
2022-10-20T02:28:20.142Z,8.60
2022-10-20T02:30:48.483Z,8.60
2022-10-20T02:33:23.764Z,8.60
2022-10-20T02:35:58.688Z,8.60
2022-10-20T02:38:27.699Z,8.60
2022-10-20T02:40:57.040Z,8.60
2022-10-20T02:43:25.279Z,8.60
2022-10-20T02:45:53.331Z,8.60
2022-10-20T02:48:20.200Z,8.60
2022-10-20T02:50:47.040Z,8.60
2022-10-20T02:53:13.928Z,8.60
2022-10-20T02:55:42.609Z,8.60
2022-10-20T02:58:10.267Z,8.60
2022-10-20T03:00:37.129Z,8.60
2022-10-20T03:03:04.258Z,8.60
2022-10-20T03:05:31.266Z,8.60
2022-10-20T03:07:58.238Z,8.60
2022-10-20T03:10:25.127Z,8.60
2022-10-20T03:12:52.075Z,8.60
2022-10-20T03:15:21.776Z,8.60
2022-10-20T03:17:48.769Z,8.60
2022-10-20T03:20:15.760Z,8.60
2022-10-20T03:22:42.648Z,8.60
2022-10-20T03:25:09.620Z,8.60
2022-10-20T03:27:36.943Z,8.60
2022-10-20T03:30:04.613Z,8.60
2022-10-20T03:32:34.423Z,8.50
2022-10-20T03:35:01.904Z,8.60
2022-10-20T03:37:28.833Z,8.60
2022-10-20T03:39:55.657Z,8.60
2022-10-20T03:42:22.613Z,8.60
2022-10-20T03:44:49.439Z,8.60
2022-10-20T03:47:16.598Z,8.60
2022-10-20T03:49:43.454Z,8.60
2022-10-20T03:52:12.966Z,8.60
2022-10-20T03:54:42.644Z,8.60
2022-10-20T03:57:10.280Z,8.60
2022-10-20T03:59:37.352Z,8.60
2022-10-20T04:02:04.628Z,8.60
2022-10-20T04:04:31.590Z,8.60
2022-10-20T04:06:58.488Z,8.50
2022-10-20T04:09:25.378Z,8.50
2022-10-20T04:11:52.215Z,8.50
2022-10-20T04:14:19.060Z,8.50
2022-10-20T04:16:45.933Z,8.60
2022-10-20T04:19:12.806Z,8.60
2022-10-20T04:21:39.781Z,8.60
2022-10-20T04:24:08.792Z,8.50
2022-10-20T04:26:38.334Z,8.60
2022-10-20T04:29:08.609Z,8.50
2022-10-20T04:31:39.727Z,8.60
2022-10-20T04:34:12.706Z,8.50
2022-10-20T04:36:42.941Z,8.50
2022-10-20T04:39:10.640Z,8.50
2022-10-20T04:41:37.596Z,8.60
2022-10-20T04:44:04.769Z,8.60
2022-10-20T04:46:31.916Z,8.60
2022-10-20T04:48:58.823Z,8.60
2022-10-20T04:51:28.275Z,8.50
2022-10-20T04:53:55.753Z,8.60
2022-10-20T04:56:23.127Z,8.60
2022-10-20T04:58:52.907Z,8.60
2022-10-20T05:01:22.829Z,8.60
2022-10-20T05:03:49.906Z,8.60
2022-10-20T05:06:24.740Z,8.60
2022-10-20T05:08:55.594Z,8.60
2022-10-20T05:11:25.448Z,8.60
2022-10-20T05:13:52.805Z,8.60
2022-10-20T05:16:20.354Z,8.70
2022-10-20T05:18:48.644Z,8.60
2022-10-20T05:21:20.753Z,8.60
2022-10-20T05:23:48.007Z,8.70
2022-10-20T05:26:19.310Z,8.70
2022-10-20T05:28:48.815Z,8.70
2022-10-20T05:31:18.334Z,8.80
2022-10-20T05:33:52.068Z,8.80
2022-10-20T05:36:23.403Z,8.80
2022-10-20T05:38:54.011Z,8.70
2022-10-20T05:41:32.099Z,8.70
2022-10-20T05:44:25.326Z,8.70
2022-10-20T05:46:57.852Z,8.80
2022-10-20T05:49:32.899Z,8.80
2022-10-20T05:52:01.508Z,8.70
2022-10-20T05:54:28.546Z,8.70
2022-10-20T05:56:55.710Z,8.80
2022-10-20T05:59:23.220Z,8.80
2022-10-20T06:01:50.213Z,8.80
2022-10-20T06:04:23.808Z,8.80
2022-10-20T06:06:52.649Z,8.80
2022-10-20T06:09:24.560Z,8.80
2022-10-20T06:11:53.114Z,8.80
2022-10-20T06:14:22.427Z,8.80
2022-10-20T06:16:53.600Z,8.80
2022-10-20T06:19:21.723Z,8.80
2022-10-20T06:21:49.616Z,8.90
2022-10-20T06:24:17.781Z,8.90
2022-10-20T06:26:45.400Z,8.90
2022-10-20T06:29:16.650Z,8.90
2022-10-20T06:31:47.140Z,8.90
2022-10-20T06:34:21.223Z,8.90
2022-10-20T06:36:49.464Z,8.90
2022-10-20T06:39:20.298Z,8.90
2022-10-20T06:41:53.885Z,9.00
2022-10-20T06:44:24.149Z,9.00
2022-10-20T06:46:52.450Z,9.00
2022-10-20T06:49:20.862Z,9.10
2022-10-20T06:51:47.727Z,9.10
2022-10-20T06:54:14.719Z,9.10
2022-10-20T06:56:41.631Z,9.10
2022-10-20T06:59:08.836Z,9.10
2022-10-20T07:01:38.649Z,9.20
2022-10-20T07:04:11.023Z,9.20
2022-10-20T07:06:40.900Z,9.20
2022-10-20T07:09:13.857Z,9.30
2022-10-20T07:11:42.197Z,9.30
2022-10-20T07:14:16.109Z,9.40
2022-10-20T07:16:43.245Z,9.40
2022-10-20T07:19:10.318Z,9.40
2022-10-20T07:21:39.327Z,9.50
2022-10-20T07:24:09.256Z,9.60
2022-10-20T07:26:42.744Z,9.60
2022-10-20T07:29:11.720Z,9.70
2022-10-20T07:31:47.229Z,9.80
2022-10-20T07:34:25.574Z,9.80
2022-10-20T07:36:55.292Z,9.90
2022-10-20T07:39:22.273Z,10.00
2022-10-20T07:41:49.688Z,10.10
2022-10-20T07:44:17.475Z,10.20
2022-10-20T07:46:45.142Z,10.30
2022-10-20T07:52:00.614Z,10.50
2022-10-20T07:54:27.828Z,10.60
2022-10-20T07:56:54.827Z,10.70
2022-10-20T07:59:21.999Z,10.80
2022-10-20T08:01:49.083Z,10.90
2022-10-20T08:04:16.099Z,11.10
2022-10-20T08:06:43.035Z,11.10
2022-10-20T08:09:10.934Z,11.20
2022-10-20T08:11:38.113Z,11.30
2022-10-20T08:14:09.375Z,11.40
2022-10-20T08:16:42.679Z,11.50
2022-10-20T08:19:20.088Z,11.50
2022-10-20T08:21:50.725Z,11.60
2022-10-20T08:24:19.878Z,11.80
2022-10-20T08:26:51.777Z,11.90
2022-10-20T08:29:19.195Z,12.00
2022-10-20T08:31:49.260Z,12.20
2022-10-20T08:34:16.697Z,12.40
2022-10-20T08:36:44.900Z,12.70
2022-10-20T08:39:13.468Z,13.00
2022-10-20T08:42:06.905Z,13.20
2022-10-20T08:44:36.155Z,13.50
2022-10-20T08:47:13.423Z,13.70
2022-10-20T08:49:40.527Z,13.90
2022-10-20T08:52:15.092Z,14.20
2022-10-20T08:55:07.401Z,14.40
2022-10-20T08:57:45.165Z,14.70
2022-10-20T09:00:22.120Z,15.00
2022-10-20T09:02:55.882Z,15.20
2022-10-20T09:05:31.978Z,15.50
2022-10-20T09:08:08.195Z,15.80
2022-10-20T09:10:48.630Z,16.00
2022-10-20T09:13:32.531Z,16.20
2022-10-20T09:16:23.253Z,16.30
2022-10-20T09:19:02.816Z,16.20
2022-10-20T09:21:32.911Z,16.20
2022-10-20T09:24:06.278Z,16.20
2022-10-20T09:26:58.240Z,16.30
2022-10-20T09:29:38.791Z,16.40
2022-10-20T09:32:46.564Z,16.30
2022-10-20T09:35:35.528Z,16.20
2022-10-20T09:38:29.466Z,16.30
2022-10-20T09:41:13.950Z,16.10
2022-10-20T09:43:58.791Z,16.10
2022-10-20T09:46:44.737Z,16.00
2022-10-20T09:49:32.617Z,16.00
2022-10-20T09:52:30.463Z,15.90
2022-10-20T09:55:18.666Z,15.90
2022-10-20T09:57:49.445Z,15.80
2022-10-20T10:00:37.956Z,15.80
2022-10-20T10:03:21.467Z,15.80
2022-10-20T10:06:00.256Z,15.80
2022-10-20T10:08:41.822Z,15.80
2022-10-20T10:11:19.210Z,15.70
2022-10-20T10:13:51.599Z,15.70
2022-10-20T10:16:24.123Z,15.60
2022-10-20T10:19:02.289Z,15.60
2022-10-20T10:21:57.551Z,15.60
2022-10-20T10:24:49.899Z,15.50
2022-10-20T10:27:30.710Z,15.50
2022-10-20T10:30:28.102Z,15.50
2022-10-20T10:32:56.353Z,15.50
2022-10-20T10:35:44.324Z,15.50
2022-10-20T10:38:14.826Z,15.50
2022-10-20T10:41:00.426Z,15.50
2022-10-20T10:43:43.792Z,15.50
2022-10-20T10:47:07.869Z,15.60
2022-10-20T10:50:02.269Z,15.50
2022-10-20T10:52:42.835Z,15.50
2022-10-20T10:55:47.697Z,15.50
2022-10-20T10:58:35.767Z,15.50
2022-10-20T11:01:16.432Z,15.50
2022-10-20T11:04:16.809Z,15.50
2022-10-20T11:07:15.405Z,15.50
2022-10-20T11:09:45.737Z,15.50
2022-10-20T11:12:56.011Z,15.50
2022-10-20T11:16:05.325Z,15.50
2022-10-20T11:19:14.119Z,15.40
2022-10-20T11:22:37.462Z,15.40
2022-10-20T11:25:33.085Z,15.40
2022-10-20T11:28:02.435Z,15.40
2022-10-20T11:30:34.085Z,15.40
2022-10-20T11:33:20.555Z,15.30
2022-10-20T11:36:19.448Z,15.30
2022-10-20T11:38:55.961Z,15.30
2022-10-20T11:41:45.674Z,15.20
2022-10-20T11:44:34.977Z,15.30
2022-10-20T11:47:09.667Z,15.20
2022-10-20T11:49:40.665Z,15.20
2022-10-20T11:52:55.594Z,15.20
2022-10-20T11:56:07.573Z,15.10
2022-10-20T11:59:04.912Z,15.10
2022-10-20T12:02:02.254Z,15.00
2022-10-20T12:05:12.680Z,15.00
2022-10-20T12:08:28.414Z,14.90
2022-10-20T12:11:46.287Z,14.90
2022-10-20T12:14:27.689Z,14.80
2022-10-20T12:16:54.517Z,14.80
2022-10-20T12:19:24.479Z,14.70
2022-10-20T12:22:06.402Z,14.70
2022-10-20T12:24:40.569Z,14.60
2022-10-20T12:27:10.342Z,14.60
2022-10-20T12:29:37.200Z,14.50
2022-10-20T12:32:24.989Z,14.50
2022-10-20T12:34:58.631Z,14.50
2022-10-20T12:37:28.062Z,14.40
2022-10-20T12:40:02.727Z,14.40
2022-10-20T12:42:33.985Z,14.40
2022-10-20T12:45:27.233Z,14.40
2022-10-20T12:48:03.122Z,14.40
2022-10-20T12:50:46.918Z,14.40
2022-10-20T12:53:27.802Z,14.50
2022-10-20T12:56:10.319Z,14.50
2022-10-20T12:59:09.983Z,14.50
2022-10-20T13:02:10.924Z,14.50
2022-10-20T13:05:07.544Z,14.60
2022-10-20T13:07:49.270Z,14.70
2022-10-20T13:10:38.733Z,14.80
2022-10-20T13:13:05.499Z,14.90
2022-10-20T13:15:38.768Z,14.90
2022-10-20T13:18:11.887Z,14.90
2022-10-20T13:20:48.674Z,14.90
2022-10-20T13:23:22.550Z,14.80
2022-10-20T13:26:16.863Z,14.80
2022-10-20T13:28:50.510Z,14.90
2022-10-20T13:31:30.948Z,14.90
2022-10-20T13:34:13.404Z,14.90
2022-10-20T13:36:59.675Z,15.00
2022-10-20T13:39:38.068Z,15.00
2022-10-20T13:42:52.402Z,15.20
2022-10-20T13:45:55.184Z,15.30
2022-10-20T13:48:56.749Z,15.60
2022-10-20T13:51:33.421Z,15.80
2022-10-20T13:54:05.682Z,15.90
2022-10-20T13:56:47.826Z,16.00
2022-10-20T13:59:14.656Z,16.30
2022-10-20T14:01:48.476Z,16.50
2022-10-20T14:04:30.508Z,16.90
2022-10-20T14:07:13.599Z,17.30
2022-10-20T14:09:45.386Z,17.70
2022-10-20T14:12:26.660Z,17.90
2022-10-20T14:15:01.892Z,18.10
2022-10-20T14:17:29.336Z,18.30
2022-10-20T14:20:32.006Z,18.40
2022-10-20T14:23:02.104Z,18.30
2022-10-20T14:25:32.820Z,18.20
2022-10-20T14:28:05.154Z,18.20
2022-10-20T14:30:38.727Z,18.40
2022-10-20T14:33:16.096Z,18.70
2022-10-20T14:35:57.158Z,18.90
2022-10-20T14:38:37.991Z,18.90
2022-10-20T14:41:08.923Z,18.90
2022-10-20T14:43:46.186Z,19.00
2022-10-20T14:46:27.553Z,18.90
2022-10-20T14:48:54.835Z,19.00
2022-10-20T14:51:37.056Z,19.00
2022-10-20T14:54:36.365Z,18.80
2022-10-20T14:57:10.233Z,18.70
2022-10-20T15:00:04.187Z,18.70
2022-10-20T15:02:40.591Z,18.70
2022-10-20T15:05:34.496Z,18.70
2022-10-20T15:08:23.643Z,18.80
2022-10-20T15:10:50.575Z,18.90
2022-10-20T15:13:26.518Z,18.80
2022-10-20T15:15:58.167Z,18.80
2022-10-20T15:18:27.029Z,18.80
2022-10-20T15:20:56.985Z,18.60
2022-10-20T15:23:29.246Z,18.50
2022-10-20T15:26:22.005Z,18.50
2022-10-20T15:28:52.046Z,18.70
2022-10-20T15:31:26.511Z,18.80
2022-10-20T15:33:55.569Z,19.00
2022-10-20T15:36:33.166Z,19.00
2022-10-20T15:39:10.552Z,19.10
2022-10-20T15:42:05.825Z,19.20
2022-10-20T15:44:38.519Z,19.20
2022-10-20T15:48:41.044Z,19.20
2022-10-20T15:55:43.166Z,18.50
2022-10-20T15:58:10.596Z,18.00
2022-10-20T16:00:37.881Z,17.70
2022-10-20T16:03:06.022Z,17.50
2022-10-20T16:05:33.957Z,17.30
2022-10-20T16:08:00.847Z,17.10
2022-10-20T16:10:31.076Z,17.00
2022-10-20T16:12:58.118Z,16.90
2022-10-20T16:19:50.815Z,16.70
2022-10-20T16:22:17.958Z,16.60
2022-10-20T16:24:46.499Z,16.50
2022-10-20T16:27:14.444Z,16.40
2022-10-20T16:29:44.116Z,16.30
2022-10-20T16:32:14.831Z,16.20
2022-10-20T16:35:08.364Z,16.10
2022-10-20T16:37:35.590Z,16.10
2022-10-20T16:40:02.888Z,16.00
2022-10-20T16:42:30.511Z,15.90
2022-10-20T16:51:12.579Z,15.70
2022-10-20T16:53:41.454Z,15.60
2022-10-20T16:56:09.666Z,15.60
2022-10-20T17:01:22.723Z,15.60
2022-10-20T17:03:59.560Z,15.50
2022-10-20T17:06:36.466Z,15.50
2022-10-20T17:09:05.960Z,15.50
2022-10-20T17:12:06.770Z,15.40
2022-10-20T17:14:57.716Z,15.40
2022-10-20T17:17:39.954Z,15.40
2022-10-20T17:20:17.443Z,15.30
2022-10-20T17:22:46.067Z,15.30
2022-10-20T17:25:26.352Z,15.30
2022-10-20T17:28:02.168Z,15.30
2022-10-20T17:31:30.270Z,15.30
2022-10-20T17:35:17.226Z,15.20
2022-10-20T17:38:10.315Z,15.20
2022-10-20T17:41:28.755Z,15.20
2022-10-20T17:44:35.602Z,15.20
2022-10-20T17:47:28.812Z,15.20
2022-10-20T17:53:55.400Z,15.20
2022-10-20T17:57:07.505Z,15.10
2022-10-20T17:59:52.867Z,15.10
2022-10-20T18:03:25.460Z,15.10
2022-10-20T18:07:06.821Z,15.10
2022-10-20T18:10:00.448Z,15.10
2022-10-20T18:12:33.588Z,15.10
2022-10-20T18:15:56.593Z,15.10
2022-10-20T18:19:19.146Z,15.10
2022-10-20T18:21:45.161Z,15.10
2022-10-20T18:24:22.121Z,15.10
2022-10-20T18:27:17.218Z,15.10
2022-10-20T18:30:15.398Z,15.10
2022-10-20T18:33:11.248Z,15.10
2022-10-20T18:36:19.472Z,15.10
2022-10-20T18:42:06.711Z,15.20
2022-10-20T18:44:51.277Z,15.20
2022-10-20T18:47:55.315Z,15.20
2022-10-20T18:51:47.188Z,15.20
2022-10-20T18:54:33.896Z,15.20
2022-10-20T18:58:06.312Z,15.30
2022-10-20T19:01:25.598Z,15.30
2022-10-20T19:04:33.219Z,15.20
2022-10-20T19:08:05.472Z,15.30
2022-10-20T19:15:01.857Z,15.20
2022-10-20T19:17:40.293Z,15.20
2022-10-20T19:20:36.774Z,15.20
2022-10-20T19:23:11.970Z,15.20
2022-10-20T19:27:21.067Z,15.30
2022-10-20T19:30:08.626Z,15.20
2022-10-20T19:33:49.855Z,15.30
2022-10-20T19:37:37.059Z,15.30
2022-10-20T19:40:09.600Z,15.20
2022-10-20T19:42:39.547Z,15.20
2022-10-20T19:45:09.952Z,15.20
2022-10-20T19:47:37.688Z,15.20
2022-10-20T19:50:09.202Z,15.20
2022-10-20T20:05:39.301Z,15.10
2022-10-20T20:12:34.119Z,15.00
2022-10-20T20:33:18.670Z,15.00
2022-10-20T20:43:50.232Z,15.00
2022-10-20T20:46:53.924Z,15.00
2022-10-20T20:53:45.150Z,15.00
2022-10-20T21:00:10.253Z,15.10
2022-10-20T21:02:59.721Z,15.10
2022-10-20T21:21:29.439Z,15.10
2022-10-20T21:25:10.681Z,15.10
2022-10-20T21:32:38.197Z,15.10
2022-10-20T21:36:15.726Z,15.10
2022-10-20T21:48:02.764Z,15.10
2022-10-20T21:54:48.416Z,15.20
2022-10-20T21:57:45.665Z,15.10
2022-10-20T22:00:34.288Z,15.20
2022-10-20T22:03:07.244Z,15.20
2022-10-20T22:06:14.921Z,15.30
2022-10-20T22:20:20.249Z,15.50
2022-10-20T22:27:42.319Z,15.60
2022-10-20T22:32:09.273Z,15.60
2022-10-20T22:38:49.828Z,15.60
2022-10-20T22:41:46.973Z,15.70
2022-10-20T22:48:53.453Z,15.90
2022-10-20T22:52:26.933Z,15.90
2022-10-20T22:54:58.574Z,15.90
2022-10-20T23:01:56.975Z,15.90
2022-10-20T23:05:07.306Z,15.90
2022-10-20T23:07:48.730Z,15.90
2022-10-20T23:10:44.661Z,15.90
2022-10-20T23:13:21.783Z,15.80
2022-10-20T23:20:33.756Z,15.80
2022-10-20T23:24:06.197Z,15.80
2022-10-20T23:26:37.011Z,15.70
2022-10-20T23:29:08.219Z,15.70
2022-10-20T23:31:38.403Z,15.60
2022-10-20T23:34:17.830Z,15.60
2022-10-20T23:40:14.546Z,15.50
2022-10-20T23:42:41.857Z,15.50
2022-10-20T23:45:37.873Z,15.40
2022-10-20T23:48:08.568Z,15.40
2022-10-20T23:50:37.737Z,15.40
2022-10-20T23:53:06.349Z,15.40
2022-10-20T23:55:48.752Z,15.30
2022-10-20T23:58:38.786Z,15.30
